sensor_id;sensor_type;location;lat;lon;timestamp;P1;durP1;ratioP1;P2;durP2;ratioP2
21554;SDS011;10938;44.794;-0.676;2022-12-18T00:00:31;15.13;;;10.80;;
21554;SDS011;10938;44.794;-0.676;2022-12-18T00:02:56;16.05;;;10.52;;
21554;SDS011;10938;44.794;-0.676;2022-12-18T00:05:22;15.88;;;10.75;;
21554;SDS011;10938;44.794;-0.676;2022-12-18T00:07:49;18.73;;;11.25;;
21554;SDS011;10938;44.794;-0.676;2022-12-18T00:10:14;16.00;;;10.40;;
21554;SDS011;10938;44.794;-0.676;2022-12-18T00:12:40;15.73;;;10.70;;
21554;SDS011;10938;44.794;-0.676;2022-12-18T00:15:06;14.90;;;10.77;;
21554;SDS011;10938;44.794;-0.676;2022-12-18T00:17:32;16.38;;;10.90;;
21554;SDS011;10938;44.794;-0.676;2022-12-18T00:19:58;15.32;;;11.52;;
21554;SDS011;10938;44.794;-0.676;2022-12-18T00:22:24;16.65;;;11.50;;
21554;SDS011;10938;44.794;-0.676;2022-12-18T00:24:49;14.82;;;10.68;;
21554;SDS011;10938;44.794;-0.676;2022-12-18T00:27:17;15.07;;;10.13;;
21554;SDS011;10938;44.794;-0.676;2022-12-18T00:29:42;17.48;;;10.68;;
21554;SDS011;10938;44.794;-0.676;2022-12-18T00:32:08;17.02;;;11.13;;
21554;SDS011;10938;44.794;-0.676;2022-12-18T00:34:33;17.13;;;11.75;;
21554;SDS011;10938;44.794;-0.676;2022-12-18T00:36:59;16.77;;;9.95;;
21554;SDS011;10938;44.794;-0.676;2022-12-18T00:39:24;17.33;;;10.55;;
21554;SDS011;10938;44.794;-0.676;2022-12-18T00:41:50;16.00;;;10.77;;
21554;SDS011;10938;44.794;-0.676;2022-12-18T00:44:34;20.05;;;12.10;;
21554;SDS011;10938;44.794;-0.676;2022-12-18T00:47:00;15.93;;;11.65;;
21554;SDS011;10938;44.794;-0.676;2022-12-18T00:49:26;18.17;;;11.73;;
21554;SDS011;10938;44.794;-0.676;2022-12-18T00:51:51;18.55;;;11.65;;
21554;SDS011;10938;44.794;-0.676;2022-12-18T00:54:17;18.42;;;11.27;;
21554;SDS011;10938;44.794;-0.676;2022-12-18T00:56:42;16.02;;;11.00;;
21554;SDS011;10938;44.794;-0.676;2022-12-18T00:59:08;17.92;;;12.43;;
21554;SDS011;10938;44.794;-0.676;2022-12-18T01:01:33;19.25;;;11.82;;
21554;SDS011;10938;44.794;-0.676;2022-12-18T01:04:00;16.63;;;11.40;;
21554;SDS011;10938;44.794;-0.676;2022-12-18T01:06:26;16.50;;;11.43;;
21554;SDS011;10938;44.794;-0.676;2022-12-18T01:08:52;16.50;;;11.30;;
21554;SDS011;10938;44.794;-0.676;2022-12-18T01:11:18;18.25;;;12.18;;
21554;SDS011;10938;44.794;-0.676;2022-12-18T01:13:45;15.63;;;11.43;;
21554;SDS011;10938;44.794;-0.676;2022-12-18T01:16:12;16.88;;;11.75;;
21554;SDS011;10938;44.794;-0.676;2022-12-18T01:18:38;18.02;;;11.52;;
21554;SDS011;10938;44.794;-0.676;2022-12-18T01:21:08;17.52;;;10.65;;
21554;SDS011;10938;44.794;-0.676;2022-12-18T01:23:34;17.00;;;11.48;;
21554;SDS011;10938;44.794;-0.676;2022-12-18T01:26:07;16.33;;;12.15;;
21554;SDS011;10938;44.794;-0.676;2022-12-18T01:28:34;16.77;;;11.80;;
21554;SDS011;10938;44.794;-0.676;2022-12-18T01:31:13;15.40;;;11.05;;
21554;SDS011;10938;44.794;-0.676;2022-12-18T01:33:41;16.60;;;11.43;;
21554;SDS011;10938;44.794;-0.676;2022-12-18T01:36:07;18.27;;;12.13;;
21554;SDS011;10938;44.794;-0.676;2022-12-18T01:38:40;20.67;;;12.18;;
21554;SDS011;10938;44.794;-0.676;2022-12-18T01:41:06;19.02;;;12.18;;
21554;SDS011;10938;44.794;-0.676;2022-12-18T01:46:16;22.20;;;13.30;;
21554;SDS011;10938;44.794;-0.676;2022-12-18T01:48:44;17.20;;;11.95;;
21554;SDS011;10938;44.794;-0.676;2022-12-18T01:51:12;19.35;;;11.90;;
21554;SDS011;10938;44.794;-0.676;2022-12-18T01:53:39;21.85;;;13.73;;
21554;SDS011;10938;44.794;-0.676;2022-12-18T01:56:06;18.70;;;12.23;;
21554;SDS011;10938;44.794;-0.676;2022-12-18T02:04:31;17.98;;;12.43;;
21554;SDS011;10938;44.794;-0.676;2022-12-18T02:10:03;18.17;;;13.02;;
21554;SDS011;10938;44.794;-0.676;2022-12-18T02:15:44;16.55;;;11.77;;
21554;SDS011;10938;44.794;-0.676;2022-12-18T02:18:20;16.52;;;12.02;;
21554;SDS011;10938;44.794;-0.676;2022-12-18T02:31:36;14.90;;;11.10;;
21554;SDS011;10938;44.794;-0.676;2022-12-18T02:34:06;16.70;;;11.43;;
21554;SDS011;10938;44.794;-0.676;2022-12-18T02:36:34;21.88;;;12.38;;
21554;SDS011;10938;44.794;-0.676;2022-12-18T02:39:03;18.30;;;11.38;;
21554;SDS011;10938;44.794;-0.676;2022-12-18T02:41:32;17.88;;;11.70;;
21554;SDS011;10938;44.794;-0.676;2022-12-18T02:43:58;17.33;;;12.40;;
21554;SDS011;10938;44.794;-0.676;2022-12-18T02:49:21;16.33;;;11.85;;
21554;SDS011;10938;44.794;-0.676;2022-12-18T02:52:03;16.67;;;11.88;;
21554;SDS011;10938;44.794;-0.676;2022-12-18T03:00:34;17.25;;;12.70;;
21554;SDS011;10938;44.794;-0.676;2022-12-18T03:03:16;16.98;;;12.02;;
21554;SDS011;10938;44.794;-0.676;2022-12-18T03:06:07;17.58;;;12.23;;
21554;SDS011;10938;44.794;-0.676;2022-12-18T03:08:38;17.80;;;12.65;;
21554;SDS011;10938;44.794;-0.676;2022-12-18T03:11:08;18.10;;;12.48;;
21554;SDS011;10938;44.794;-0.676;2022-12-18T03:13:48;15.45;;;11.32;;
21554;SDS011;10938;44.794;-0.676;2022-12-18T03:16:24;16.13;;;11.25;;
21554;SDS011;10938;44.794;-0.676;2022-12-18T03:19:03;16.70;;;12.48;;
21554;SDS011;10938;44.794;-0.676;2022-12-18T03:21:42;16.70;;;12.02;;
21554;SDS011;10938;44.794;-0.676;2022-12-18T03:24:10;14.43;;;10.70;;
21554;SDS011;10938;44.794;-0.676;2022-12-18T03:26:37;17.92;;;12.55;;
21554;SDS011;10938;44.794;-0.676;2022-12-18T03:29:10;15.52;;;11.35;;
21554;SDS011;10938;44.794;-0.676;2022-12-18T03:31:42;15.93;;;11.52;;
21554;SDS011;10938;44.794;-0.676;2022-12-18T03:34:15;17.10;;;11.55;;
21554;SDS011;10938;44.794;-0.676;2022-12-18T03:36:46;16.85;;;12.38;;
21554;SDS011;10938;44.794;-0.676;2022-12-18T03:39:12;16.08;;;11.20;;
21554;SDS011;10938;44.794;-0.676;2022-12-18T03:41:41;14.85;;;11.25;;
21554;SDS011;10938;44.794;-0.676;2022-12-18T03:47:13;16.70;;;11.38;;
21554;SDS011;10938;44.794;-0.676;2022-12-18T03:52:28;16.27;;;10.90;;
21554;SDS011;10938;44.794;-0.676;2022-12-18T03:54:58;15.07;;;11.23;;
21554;SDS011;10938;44.794;-0.676;2022-12-18T03:57:27;16.40;;;11.38;;
21554;SDS011;10938;44.794;-0.676;2022-12-18T03:59:56;14.75;;;10.88;;
21554;SDS011;10938;44.794;-0.676;2022-12-18T04:02:25;14.43;;;10.38;;
21554;SDS011;10938;44.794;-0.676;2022-12-18T04:04:55;16.45;;;11.68;;
21554;SDS011;10938;44.794;-0.676;2022-12-18T04:07:24;16.25;;;11.10;;
21554;SDS011;10938;44.794;-0.676;2022-12-18T04:09:50;15.80;;;11.52;;
21554;SDS011;10938;44.794;-0.676;2022-12-18T04:12:18;14.48;;;11.05;;
21554;SDS011;10938;44.794;-0.676;2022-12-18T04:14:44;15.90;;;11.90;;
21554;SDS011;10938;44.794;-0.676;2022-12-18T04:17:09;16.38;;;11.88;;
21554;SDS011;10938;44.794;-0.676;2022-12-18T04:19:35;14.93;;;11.52;;
21554;SDS011;10938;44.794;-0.676;2022-12-18T04:22:00;22.60;;;12.25;;
21554;SDS011;10938;44.794;-0.676;2022-12-18T04:24:27;16.95;;;12.45;;
21554;SDS011;10938;44.794;-0.676;2022-12-18T04:26:52;16.60;;;11.23;;
21554;SDS011;10938;44.794;-0.676;2022-12-18T04:29:18;15.93;;;10.65;;
21554;SDS011;10938;44.794;-0.676;2022-12-18T04:31:43;14.07;;;10.50;;
21554;SDS011;10938;44.794;-0.676;2022-12-18T04:34:09;19.85;;;11.02;;
21554;SDS011;10938;44.794;-0.676;2022-12-18T04:36:34;17.50;;;11.07;;
21554;SDS011;10938;44.794;-0.676;2022-12-18T04:39:00;18.92;;;11.10;;
21554;SDS011;10938;44.794;-0.676;2022-12-18T04:41:25;14.68;;;10.10;;
21554;SDS011;10938;44.794;-0.676;2022-12-18T04:43:50;12.40;;;9.68;;
21554;SDS011;10938;44.794;-0.676;2022-12-18T04:46:16;18.67;;;11.10;;
21554;SDS011;10938;44.794;-0.676;2022-12-18T04:48:41;16.05;;;10.48;;
21554;SDS011;10938;44.794;-0.676;2022-12-18T04:51:10;17.00;;;10.77;;
21554;SDS011;10938;44.794;-0.676;2022-12-18T04:53:35;20.63;;;10.88;;
21554;SDS011;10938;44.794;-0.676;2022-12-18T04:56:05;23.00;;;10.57;;
21554;SDS011;10938;44.794;-0.676;2022-12-18T04:58:32;20.17;;;11.05;;
21554;SDS011;10938;44.794;-0.676;2022-12-18T05:00:57;15.90;;;9.52;;
21554;SDS011;10938;44.794;-0.676;2022-12-18T05:03:23;31.35;;;10.48;;
21554;SDS011;10938;44.794;-0.676;2022-12-18T05:05:49;31.60;;;10.85;;
21554;SDS011;10938;44.794;-0.676;2022-12-18T05:08:15;31.08;;;9.88;;
21554;SDS011;10938;44.794;-0.676;2022-12-18T05:10:41;36.20;;;10.50;;
21554;SDS011;10938;44.794;-0.676;2022-12-18T05:13:06;52.50;;;10.52;;
21554;SDS011;10938;44.794;-0.676;2022-12-18T05:15:32;49.22;;;10.55;;
21554;SDS011;10938;44.794;-0.676;2022-12-18T05:17:58;47.00;;;10.25;;
21554;SDS011;10938;44.794;-0.676;2022-12-18T05:20:25;27.17;;;10.95;;
21554;SDS011;10938;44.794;-0.676;2022-12-18T05:22:51;74.57;;;10.52;;
21554;SDS011;10938;44.794;-0.676;2022-12-18T05:25:18;29.30;;;9.50;;
21554;SDS011;10938;44.794;-0.676;2022-12-18T05:27:45;28.52;;;9.77;;
21554;SDS011;10938;44.794;-0.676;2022-12-18T05:30:11;55.17;;;11.05;;
21554;SDS011;10938;44.794;-0.676;2022-12-18T05:32:37;59.35;;;10.50;;
21554;SDS011;10938;44.794;-0.676;2022-12-18T05:35:03;68.50;;;11.27;;
21554;SDS011;10938;44.794;-0.676;2022-12-18T05:37:30;21.60;;;8.90;;
21554;SDS011;10938;44.794;-0.676;2022-12-18T05:39:55;74.47;;;9.05;;
21554;SDS011;10938;44.794;-0.676;2022-12-18T05:42:21;67.38;;;8.90;;
21554;SDS011;10938;44.794;-0.676;2022-12-18T05:44:46;37.30;;;9.32;;
21554;SDS011;10938;44.794;-0.676;2022-12-18T05:47:12;37.67;;;8.32;;
21554;SDS011;10938;44.794;-0.676;2022-12-18T05:49:37;27.85;;;8.15;;
21554;SDS011;10938;44.794;-0.676;2022-12-18T05:52:03;27.08;;;8.00;;
21554;SDS011;10938;44.794;-0.676;2022-12-18T05:54:28;73.15;;;8.80;;
21554;SDS011;10938;44.794;-0.676;2022-12-18T05:56:54;47.72;;;9.07;;
21554;SDS011;10938;44.794;-0.676;2022-12-18T05:59:19;39.38;;;8.30;;
21554;SDS011;10938;44.794;-0.676;2022-12-18T06:01:45;56.58;;;8.73;;
21554;SDS011;10938;44.794;-0.676;2022-12-18T06:04:11;44.13;;;8.85;;
21554;SDS011;10938;44.794;-0.676;2022-12-18T06:06:38;62.03;;;8.23;;
21554;SDS011;10938;44.794;-0.676;2022-12-18T06:09:03;55.72;;;8.95;;
21554;SDS011;10938;44.794;-0.676;2022-12-18T06:11:33;31.15;;;7.78;;
21554;SDS011;10938;44.794;-0.676;2022-12-18T06:14:00;40.70;;;7.43;;
21554;SDS011;10938;44.794;-0.676;2022-12-18T06:16:27;54.38;;;7.13;;
21554;SDS011;10938;44.794;-0.676;2022-12-18T06:18:57;20.63;;;7.25;;
21554;SDS011;10938;44.794;-0.676;2022-12-18T06:21:27;43.25;;;7.70;;
21554;SDS011;10938;44.794;-0.676;2022-12-18T06:23:53;45.35;;;7.07;;
21554;SDS011;10938;44.794;-0.676;2022-12-18T06:26:19;25.92;;;7.40;;
21554;SDS011;10938;44.794;-0.676;2022-12-18T06:28:45;48.28;;;7.50;;
21554;SDS011;10938;44.794;-0.676;2022-12-18T06:31:10;54.80;;;7.63;;
21554;SDS011;10938;44.794;-0.676;2022-12-18T06:33:36;54.22;;;7.55;;
21554;SDS011;10938;44.794;-0.676;2022-12-18T06:36:04;32.50;;;7.07;;
21554;SDS011;10938;44.794;-0.676;2022-12-18T06:38:35;18.75;;;6.70;;
21554;SDS011;10938;44.794;-0.676;2022-12-18T06:41:08;26.55;;;6.88;;
21554;SDS011;10938;44.794;-0.676;2022-12-18T06:43:43;11.80;;;6.35;;
21554;SDS011;10938;44.794;-0.676;2022-12-18T06:46:09;7.18;;;6.10;;
21554;SDS011;10938;44.794;-0.676;2022-12-18T06:48:35;29.95;;;7.28;;
21554;SDS011;10938;44.794;-0.676;2022-12-18T06:51:00;21.08;;;6.85;;
21554;SDS011;10938;44.794;-0.676;2022-12-18T06:53:26;18.92;;;7.45;;
21554;SDS011;10938;44.794;-0.676;2022-12-18T06:55:52;12.18;;;6.78;;
21554;SDS011;10938;44.794;-0.676;2022-12-18T06:58:17;16.50;;;6.38;;
21554;SDS011;10938;44.794;-0.676;2022-12-18T07:00:43;11.38;;;5.93;;
21554;SDS011;10938;44.794;-0.676;2022-12-18T07:03:08;14.00;;;7.05;;
21554;SDS011;10938;44.794;-0.676;2022-12-18T07:05:34;12.68;;;6.80;;
21554;SDS011;10938;44.794;-0.676;2022-12-18T07:08:04;12.30;;;6.82;;
21554;SDS011;10938;44.794;-0.676;2022-12-18T07:10:30;14.18;;;6.63;;
21554;SDS011;10938;44.794;-0.676;2022-12-18T07:12:55;22.20;;;7.07;;
21554;SDS011;10938;44.794;-0.676;2022-12-18T07:15:21;16.50;;;6.97;;
21554;SDS011;10938;44.794;-0.676;2022-12-18T07:17:46;15.35;;;6.60;;
21554;SDS011;10938;44.794;-0.676;2022-12-18T07:20:11;12.73;;;7.35;;
21554;SDS011;10938;44.794;-0.676;2022-12-18T07:22:37;22.50;;;7.38;;
21554;SDS011;10938;44.794;-0.676;2022-12-18T07:25:03;12.77;;;7.03;;
21554;SDS011;10938;44.794;-0.676;2022-12-18T07:27:29;14.27;;;7.38;;
21554;SDS011;10938;44.794;-0.676;2022-12-18T07:29:54;20.33;;;8.10;;
21554;SDS011;10938;44.794;-0.676;2022-12-18T07:32:20;26.85;;;7.88;;
21554;SDS011;10938;44.794;-0.676;2022-12-18T07:34:45;18.38;;;7.47;;
21554;SDS011;10938;44.794;-0.676;2022-12-18T07:37:10;16.05;;;8.43;;
21554;SDS011;10938;44.794;-0.676;2022-12-18T07:39:36;10.63;;;8.30;;
21554;SDS011;10938;44.794;-0.676;2022-12-18T07:42:02;16.92;;;8.73;;
21554;SDS011;10938;44.794;-0.676;2022-12-18T07:44:46;15.75;;;7.80;;
21554;SDS011;10938;44.794;-0.676;2022-12-18T07:47:11;11.60;;;8.07;;
21554;SDS011;10938;44.794;-0.676;2022-12-18T07:49:36;14.35;;;9.02;;
21554;SDS011;10938;44.794;-0.676;2022-12-18T07:52:02;13.20;;;8.95;;
21554;SDS011;10938;44.794;-0.676;2022-12-18T07:54:28;16.45;;;8.98;;
21554;SDS011;10938;44.794;-0.676;2022-12-18T07:56:53;13.85;;;8.40;;
21554;SDS011;10938;44.794;-0.676;2022-12-18T07:59:18;14.38;;;10.07;;
21554;SDS011;10938;44.794;-0.676;2022-12-18T08:01:44;10.70;;;8.77;;
21554;SDS011;10938;44.794;-0.676;2022-12-18T08:04:09;11.15;;;8.85;;
21554;SDS011;10938;44.794;-0.676;2022-12-18T08:06:35;12.00;;;9.80;;
21554;SDS011;10938;44.794;-0.676;2022-12-18T08:09:00;11.65;;;8.88;;
21554;SDS011;10938;44.794;-0.676;2022-12-18T08:11:27;10.15;;;8.80;;
21554;SDS011;10938;44.794;-0.676;2022-12-18T08:13:53;11.45;;;8.50;;
21554;SDS011;10938;44.794;-0.676;2022-12-18T08:16:20;10.25;;;8.63;;
21554;SDS011;10938;44.794;-0.676;2022-12-18T08:18:46;11.30;;;9.05;;
21554;SDS011;10938;44.794;-0.676;2022-12-18T08:21:13;12.07;;;9.15;;
21554;SDS011;10938;44.794;-0.676;2022-12-18T08:23:52;9.55;;;8.32;;
21554;SDS011;10938;44.794;-0.676;2022-12-18T08:26:20;10.43;;;8.30;;
21554;SDS011;10938;44.794;-0.676;2022-12-18T08:28:47;9.75;;;7.68;;
21554;SDS011;10938;44.794;-0.676;2022-12-18T08:31:13;8.45;;;7.38;;
21554;SDS011;10938;44.794;-0.676;2022-12-18T08:33:38;8.90;;;7.63;;
21554;SDS011;10938;44.794;-0.676;2022-12-18T08:36:05;10.15;;;7.70;;
21554;SDS011;10938;44.794;-0.676;2022-12-18T08:38:31;8.75;;;7.03;;
21554;SDS011;10938;44.794;-0.676;2022-12-18T08:41:01;8.60;;;6.70;;
21554;SDS011;10938;44.794;-0.676;2022-12-18T08:43:28;7.85;;;6.88;;
21554;SDS011;10938;44.794;-0.676;2022-12-18T08:46:12;9.00;;;7.45;;
21554;SDS011;10938;44.794;-0.676;2022-12-18T08:48:41;8.48;;;6.88;;
21554;SDS011;10938;44.794;-0.676;2022-12-18T08:51:07;8.90;;;7.47;;
21554;SDS011;10938;44.794;-0.676;2022-12-18T08:53:34;9.30;;;7.68;;
21554;SDS011;10938;44.794;-0.676;2022-12-18T08:56:00;8.68;;;7.25;;
21554;SDS011;10938;44.794;-0.676;2022-12-18T08:58:26;9.32;;;7.50;;
21554;SDS011;10938;44.794;-0.676;2022-12-18T09:00:52;8.75;;;6.95;;
21554;SDS011;10938;44.794;-0.676;2022-12-18T09:03:18;7.40;;;6.47;;
21554;SDS011;10938;44.794;-0.676;2022-12-18T09:05:45;9.32;;;7.05;;
21554;SDS011;10938;44.794;-0.676;2022-12-18T09:08:11;9.82;;;7.53;;
21554;SDS011;10938;44.794;-0.676;2022-12-18T09:10:42;8.80;;;7.22;;
21554;SDS011;10938;44.794;-0.676;2022-12-18T09:13:10;8.38;;;7.18;;
21554;SDS011;10938;44.794;-0.676;2022-12-18T09:15:40;9.05;;;7.15;;
21554;SDS011;10938;44.794;-0.676;2022-12-18T09:18:10;8.18;;;6.93;;
21554;SDS011;10938;44.794;-0.676;2022-12-18T09:20:36;8.80;;;6.75;;
21554;SDS011;10938;44.794;-0.676;2022-12-18T09:23:03;8.40;;;6.82;;
21554;SDS011;10938;44.794;-0.676;2022-12-18T09:25:30;8.88;;;6.60;;
21554;SDS011;10938;44.794;-0.676;2022-12-18T09:28:19;8.25;;;6.38;;
21554;SDS011;10938;44.794;-0.676;2022-12-18T09:30:47;10.30;;;6.25;;
21554;SDS011;10938;44.794;-0.676;2022-12-18T09:33:14;8.40;;;6.85;;
21554;SDS011;10938;44.794;-0.676;2022-12-18T09:35:41;6.85;;;5.70;;
21554;SDS011;10938;44.794;-0.676;2022-12-18T09:38:08;7.70;;;6.35;;
21554;SDS011;10938;44.794;-0.676;2022-12-18T09:43:22;8.23;;;5.95;;
21554;SDS011;10938;44.794;-0.676;2022-12-18T09:46:11;7.75;;;6.05;;
21554;SDS011;10938;44.794;-0.676;2022-12-18T09:48:43;9.30;;;6.82;;
21554;SDS011;10938;44.794;-0.676;2022-12-18T09:51:12;8.52;;;6.72;;
21554;SDS011;10938;44.794;-0.676;2022-12-18T09:53:55;7.70;;;6.45;;
21554;SDS011;10938;44.794;-0.676;2022-12-18T09:56:26;8.38;;;6.78;;
21554;SDS011;10938;44.794;-0.676;2022-12-18T09:58:58;8.50;;;6.68;;
21554;SDS011;10938;44.794;-0.676;2022-12-18T10:01:25;10.25;;;7.22;;
21554;SDS011;10938;44.794;-0.676;2022-12-18T10:03:52;9.23;;;6.88;;
21554;SDS011;10938;44.794;-0.676;2022-12-18T10:06:27;7.95;;;6.60;;
21554;SDS011;10938;44.794;-0.676;2022-12-18T10:12:30;7.20;;;5.97;;
21554;SDS011;10938;44.794;-0.676;2022-12-18T10:15:19;6.85;;;5.32;;
21554;SDS011;10938;44.794;-0.676;2022-12-18T10:20:42;6.78;;;5.43;;
21554;SDS011;10938;44.794;-0.676;2022-12-18T10:23:18;7.65;;;4.75;;
21554;SDS011;10938;44.794;-0.676;2022-12-18T10:25:53;7.32;;;5.38;;
21554;SDS011;10938;44.794;-0.676;2022-12-18T10:28:24;6.47;;;4.68;;
21554;SDS011;10938;44.794;-0.676;2022-12-18T10:30:51;6.28;;;5.03;;
21554;SDS011;10938;44.794;-0.676;2022-12-18T10:33:20;6.15;;;4.68;;
21554;SDS011;10938;44.794;-0.676;2022-12-18T10:35:49;5.35;;;4.45;;
21554;SDS011;10938;44.794;-0.676;2022-12-18T10:43:27;5.25;;;4.57;;
21554;SDS011;10938;44.794;-0.676;2022-12-18T10:48:23;6.57;;;4.50;;
21554;SDS011;10938;44.794;-0.676;2022-12-18T10:50:50;5.18;;;4.05;;
21554;SDS011;10938;44.794;-0.676;2022-12-18T10:53:20;8.75;;;4.70;;
21554;SDS011;10938;44.794;-0.676;2022-12-18T10:55:48;4.85;;;3.80;;
21554;SDS011;10938;44.794;-0.676;2022-12-18T11:06:12;5.05;;;3.60;;
21554;SDS011;10938;44.794;-0.676;2022-12-18T11:09:32;4.63;;;3.42;;
21554;SDS011;10938;44.794;-0.676;2022-12-18T11:11:51;5.07;;;3.67;;
21554;SDS011;10938;44.794;-0.676;2022-12-18T11:14:23;5.25;;;4.00;;
21554;SDS011;10938;44.794;-0.676;2022-12-18T11:16:51;5.35;;;3.65;;
21554;SDS011;10938;44.794;-0.676;2022-12-18T11:19:23;4.68;;;3.50;;
21554;SDS011;10938;44.794;-0.676;2022-12-18T11:22:21;4.00;;;3.17;;
21554;SDS011;10938;44.794;-0.676;2022-12-18T11:25:01;8.45;;;3.50;;
21554;SDS011;10938;44.794;-0.676;2022-12-18T11:27:47;4.07;;;2.95;;
21554;SDS011;10938;44.794;-0.676;2022-12-18T11:32:56;4.07;;;2.97;;
21554;SDS011;10938;44.794;-0.676;2022-12-18T11:38:35;4.45;;;2.90;;
21554;SDS011;10938;44.794;-0.676;2022-12-18T11:44:08;4.25;;;2.90;;
21554;SDS011;10938;44.794;-0.676;2022-12-18T11:46:45;3.78;;;3.08;;
21554;SDS011;10938;44.794;-0.676;2022-12-18T11:49:24;4.20;;;3.20;;
21554;SDS011;10938;44.794;-0.676;2022-12-18T11:54:40;4.43;;;3.35;;
21554;SDS011;10938;44.794;-0.676;2022-12-18T11:57:13;4.03;;;2.78;;
21554;SDS011;10938;44.794;-0.676;2022-12-18T12:00:07;3.63;;;2.50;;
21554;SDS011;10938;44.794;-0.676;2022-12-18T12:30:03;3.30;;;2.50;;
21554;SDS011;10938;44.794;-0.676;2022-12-18T12:35:42;3.30;;;2.10;;
21554;SDS011;10938;44.794;-0.676;2022-12-18T12:38:16;4.07;;;2.50;;
21554;SDS011;10938;44.794;-0.676;2022-12-18T12:40:51;2.67;;;2.08;;
21554;SDS011;10938;44.794;-0.676;2022-12-18T12:43:28;3.33;;;2.58;;
21554;SDS011;10938;44.794;-0.676;2022-12-18T12:46:09;4.97;;;2.47;;
21554;SDS011;10938;44.794;-0.676;2022-12-18T12:48:46;5.57;;;2.47;;
21554;SDS011;10938;44.794;-0.676;2022-12-18T12:51:17;3.10;;;2.20;;
21554;SDS011;10938;44.794;-0.676;2022-12-18T12:53:43;3.15;;;2.20;;
21554;SDS011;10938;44.794;-0.676;2022-12-18T12:56:11;2.78;;;2.13;;
21554;SDS011;10938;44.794;-0.676;2022-12-18T13:04:10;2.33;;;1.85;;
21554;SDS011;10938;44.794;-0.676;2022-12-18T13:09:12;3.03;;;2.15;;
21554;SDS011;10938;44.794;-0.676;2022-12-18T13:11:46;2.60;;;1.92;;
21554;SDS011;10938;44.794;-0.676;2022-12-18T13:14:32;3.10;;;2.13;;
21554;SDS011;10938;44.794;-0.676;2022-12-18T13:19:48;4.03;;;2.28;;
21554;SDS011;10938;44.794;-0.676;2022-12-18T13:22:35;3.90;;;2.40;;
21554;SDS011;10938;44.794;-0.676;2022-12-18T13:25:01;2.65;;;2.10;;
21554;SDS011;10938;44.794;-0.676;2022-12-18T13:38:23;2.40;;;2.13;;
21554;SDS011;10938;44.794;-0.676;2022-12-18T13:41:00;3.33;;;1.98;;
21554;SDS011;10938;44.794;-0.676;2022-12-18T13:48:49;2.35;;;2.05;;
21554;SDS011;10938;44.794;-0.676;2022-12-18T13:51:42;4.15;;;2.65;;
21554;SDS011;10938;44.794;-0.676;2022-12-18T13:56:55;2.72;;;2.15;;
21554;SDS011;10938;44.794;-0.676;2022-12-18T13:59:22;14.52;;;11.30;;
21554;SDS011;10938;44.794;-0.676;2022-12-18T14:01:56;5.68;;;3.30;;
21554;SDS011;10938;44.794;-0.676;2022-12-18T14:04:29;6.15;;;3.40;;
21554;SDS011;10938;44.794;-0.676;2022-12-18T14:09:47;3.13;;;2.35;;
21554;SDS011;10938;44.794;-0.676;2022-12-18T14:12:16;12.40;;;8.48;;
21554;SDS011;10938;44.794;-0.676;2022-12-18T14:15:06;7.05;;;4.95;;
21554;SDS011;10938;44.794;-0.676;2022-12-18T14:17:46;18.75;;;12.00;;
21554;SDS011;10938;44.794;-0.676;2022-12-18T14:20:13;5.65;;;4.07;;
21554;SDS011;10938;44.794;-0.676;2022-12-18T14:22:43;5.97;;;4.53;;
21554;SDS011;10938;44.794;-0.676;2022-12-18T14:27:46;3.65;;;3.10;;
21554;SDS011;10938;44.794;-0.676;2022-12-18T14:30:28;3.40;;;2.70;;
21554;SDS011;10938;44.794;-0.676;2022-12-18T14:35:26;9.23;;;8.30;;
21554;SDS011;10938;44.794;-0.676;2022-12-18T14:37:52;4.68;;;3.60;;
21554;SDS011;10938;44.794;-0.676;2022-12-18T14:40:17;6.72;;;4.05;;
21554;SDS011;10938;44.794;-0.676;2022-12-18T14:42:43;5.93;;;3.90;;
21554;SDS011;10938;44.794;-0.676;2022-12-18T14:50:36;12.52;;;7.72;;
21554;SDS011;10938;44.794;-0.676;2022-12-18T14:53:20;7.15;;;5.10;;
21554;SDS011;10938;44.794;-0.676;2022-12-18T14:55:57;7.65;;;4.47;;
21554;SDS011;10938;44.794;-0.676;2022-12-18T14:58:39;6.45;;;4.50;;
21554;SDS011;10938;44.794;-0.676;2022-12-18T15:01:08;10.63;;;7.15;;
21554;SDS011;10938;44.794;-0.676;2022-12-18T15:03:50;6.38;;;4.65;;
21554;SDS011;10938;44.794;-0.676;2022-12-18T15:06:17;6.55;;;4.10;;
21554;SDS011;10938;44.794;-0.676;2022-12-18T15:08:55;6.63;;;3.30;;
21554;SDS011;10938;44.794;-0.676;2022-12-18T15:11:28;5.72;;;4.43;;
21554;SDS011;10938;44.794;-0.676;2022-12-18T15:16:58;3.22;;;2.50;;
21554;SDS011;10938;44.794;-0.676;2022-12-18T15:19:35;4.30;;;2.83;;
21554;SDS011;10938;44.794;-0.676;2022-12-18T15:22:13;4.63;;;3.15;;
21554;SDS011;10938;44.794;-0.676;2022-12-18T15:24:42;3.15;;;2.70;;
21554;SDS011;10938;44.794;-0.676;2022-12-18T15:27:20;4.13;;;3.00;;
21554;SDS011;10938;44.794;-0.676;2022-12-18T15:30:16;5.10;;;3.63;;
21554;SDS011;10938;44.794;-0.676;2022-12-18T15:32:46;4.72;;;3.70;;
21554;SDS011;10938;44.794;-0.676;2022-12-18T15:35:15;3.65;;;2.63;;
21554;SDS011;10938;44.794;-0.676;2022-12-18T15:37:42;6.70;;;3.45;;
21554;SDS011;10938;44.794;-0.676;2022-12-18T15:40:14;5.20;;;3.72;;
21554;SDS011;10938;44.794;-0.676;2022-12-18T15:42:41;6.03;;;4.20;;
21554;SDS011;10938;44.794;-0.676;2022-12-18T15:45:32;3.80;;;3.10;;
21554;SDS011;10938;44.794;-0.676;2022-12-18T15:47:58;9.38;;;4.20;;
21554;SDS011;10938;44.794;-0.676;2022-12-18T15:50:24;33.83;;;23.20;;
21554;SDS011;10938;44.794;-0.676;2022-12-18T15:52:52;7.05;;;4.22;;
21554;SDS011;10938;44.794;-0.676;2022-12-18T15:55:21;7.57;;;5.35;;
21554;SDS011;10938;44.794;-0.676;2022-12-18T16:00:39;6.45;;;3.67;;
21554;SDS011;10938;44.794;-0.676;2022-12-18T16:03:06;6.35;;;3.72;;
21554;SDS011;10938;44.794;-0.676;2022-12-18T16:05:32;8.23;;;4.65;;
21554;SDS011;10938;44.794;-0.676;2022-12-18T16:07:58;8.00;;;4.18;;
21554;SDS011;10938;44.794;-0.676;2022-12-18T16:10:24;7.60;;;4.30;;
21554;SDS011;10938;44.794;-0.676;2022-12-18T16:12:51;6.95;;;4.38;;
21554;SDS011;10938;44.794;-0.676;2022-12-18T16:15:17;6.70;;;4.20;;
21554;SDS011;10938;44.794;-0.676;2022-12-18T16:17:43;7.00;;;4.72;;
21554;SDS011;10938;44.794;-0.676;2022-12-18T16:20:12;5.25;;;3.70;;
21554;SDS011;10938;44.794;-0.676;2022-12-18T16:22:43;6.18;;;3.78;;
21554;SDS011;10938;44.794;-0.676;2022-12-18T16:25:18;4.40;;;3.45;;
21554;SDS011;10938;44.794;-0.676;2022-12-18T16:27:46;6.97;;;4.57;;
21554;SDS011;10938;44.794;-0.676;2022-12-18T16:30:16;6.75;;;4.38;;
21554;SDS011;10938;44.794;-0.676;2022-12-18T16:32:43;8.65;;;4.40;;
21554;SDS011;10938;44.794;-0.676;2022-12-18T16:35:10;7.38;;;4.60;;
21554;SDS011;10938;44.794;-0.676;2022-12-18T16:37:36;6.80;;;4.60;;
21554;SDS011;10938;44.794;-0.676;2022-12-18T16:40:02;6.28;;;4.50;;
21554;SDS011;10938;44.794;-0.676;2022-12-18T16:42:28;8.60;;;5.55;;
21554;SDS011;10938;44.794;-0.676;2022-12-18T16:44:57;7.90;;;4.97;;
21554;SDS011;10938;44.794;-0.676;2022-12-18T16:47:24;6.63;;;4.35;;
21554;SDS011;10938;44.794;-0.676;2022-12-18T16:49:50;8.13;;;4.65;;
21554;SDS011;10938;44.794;-0.676;2022-12-18T16:52:15;6.50;;;4.38;;
21554;SDS011;10938;44.794;-0.676;2022-12-18T16:54:41;6.60;;;4.70;;
21554;SDS011;10938;44.794;-0.676;2022-12-18T16:57:08;6.78;;;4.32;;
21554;SDS011;10938;44.794;-0.676;2022-12-18T16:59:36;6.72;;;4.32;;
21554;SDS011;10938;44.794;-0.676;2022-12-18T17:02:02;6.85;;;4.22;;
21554;SDS011;10938;44.794;-0.676;2022-12-18T17:04:27;8.55;;;5.32;;
21554;SDS011;10938;44.794;-0.676;2022-12-18T17:06:53;5.78;;;4.25;;
21554;SDS011;10938;44.794;-0.676;2022-12-18T17:09:19;5.85;;;4.20;;
21554;SDS011;10938;44.794;-0.676;2022-12-18T17:11:52;6.15;;;4.45;;